University of Illinois Willard Airport
KCMI : now visible

Airfield :











YOU CAN JOIN US ON...

 
LOGIN :

Register | Disclaimer

   EN    FR    IT 

 









Legend :    VFR   Marginal VFR   IFR   Intensive IFR   Very Intensive IFR
Visi :
Ceiling :
>= 8 km
>= 3000ft
5 to 8 km
1000 to 3000 ft
1500m to 5 km
500 to 1000 ft
800 to 1500m
200 to 500 ft
< 800m
< 200 ft
Symbols :   Thunderstorms  Fog  Heavy snow  Heavy precipitations  Wind > 20 kt






- Airport Elevation : 755 ft
- IATA code : CMI


KCMI - University of Illinois Willard

CURRENT METAR :
  • 280653Z AUTO 00000KT 9SM CLR 13/12 A2994 RMK AO2 SLP138 T01330117

EXPIRED METARs :
  • 280630Z AUTO 07004KT 9SM FEW007 FEW012 SCT018 13/12 A2994 RMK AO2 T01330117
  • 280616Z AUTO 06004KT 10SM SCT009 BKN018 BKN025 14/12 A2994 RMK AO2 T01440122
  • 280606Z AUTO 04005KT 10SM BKN009 14/13 A2994 RMK AO2 CIG 007V014 T01440128
  • 280553Z AUTO 04003KT 10SM FEW009 SCT035 14/12 A2994 RMK AO2 SLP138 T01390122 10167 20139 401780133 51002
  • 280453Z AUTO 34004KT 10SM OVC035 16/13 A2994 RMK AO2 SLP136 T01560128

TAF KCMI
Valid from the 28 at 06:00 until the 29 at 06:00 UTC


280520Z 2806/2906 34005KT P6SM BKN035
FM280900 VRB03KT 4SM BR SKC
TEMPO 2810/2813 1SM BR SCT002
FM281400 17007KT P6SM SCT025 BKN250
FM290200 16010G18KT P6SM SCT250
KZAU FIR / North America



MET'MAP, your aeronautical weather chart ! - Copyright ORBIFLY December 2007 - Disclaimer

ORBIFLY MET'MAP TEAM :

Programming & Development : Alexandra Zaïnal
Original concept : Baudouin d'Aumeries
Technical & hardware support : Manuel Goepfert
Assistance : Marc-Olivier Méhu

Contact : metmap@orbifly.com




SOURCES & CREDITS :

   NOAA       Earth
Advisory